sensor_id;sensor_type;location;lat;lon;timestamp;temperature;humidity
17170;DHT22;8700;48.222;16.342;2022-08-01T00:02:23;24.20;99.90
17170;DHT22;8700;48.222;16.342;2022-08-01T00:05:44;24.20;99.90
17170;DHT22;8700;48.222;16.342;2022-08-01T00:09:06;24.10;99.90
17170;DHT22;8700;48.222;16.342;2022-08-01T00:12:27;23.80;99.90
17170;DHT22;8700;48.222;16.342;2022-08-01T00:15:49;23.70;99.90
17170;DHT22;8700;48.222;16.342;2022-08-01T00:19:11;23.60;99.90
17170;DHT22;8700;48.222;16.342;2022-08-01T00:22:33;23.60;99.90
17170;DHT22;8700;48.222;16.342;2022-08-01T00:25:55;23.60;99.90
17170;DHT22;8700;48.222;16.342;2022-08-01T00:29:17;23.60;99.90
17170;DHT22;8700;48.222;16.342;2022-08-01T00:32:38;23.60;99.90
17170;DHT22;8700;48.222;16.342;2022-08-01T00:36:01;23.60;99.90
17170;DHT22;8700;48.222;16.342;2022-08-01T00:39:22;23.70;99.90
17170;DHT22;8700;48.222;16.342;2022-08-01T00:42:44;23.70;99.90
17170;DHT22;8700;48.222;16.342;2022-08-01T00:46:05;23.90;99.90
17170;DHT22;8700;48.222;16.342;2022-08-01T00:49:27;23.90;99.90
17170;DHT22;8700;48.222;16.342;2022-08-01T00:52:50;24.00;99.90
17170;DHT22;8700;48.222;16.342;2022-08-01T00:56:12;24.00;99.90
17170;DHT22;8700;48.222;16.342;2022-08-01T00:59:34;24.00;99.90
17170;DHT22;8700;48.222;16.342;2022-08-01T01:02:55;23.90;99.90
17170;DHT22;8700;48.222;16.342;2022-08-01T01:06:30;23.80;99.90
17170;DHT22;8700;48.222;16.342;2022-08-01T01:10:00;23.80;99.90
17170;DHT22;8700;48.222;16.342;2022-08-01T01:13:32;23.80;99.90
17170;DHT22;8700;48.222;16.342;2022-08-01T01:16:55;23.70;99.90
17170;DHT22;8700;48.222;16.342;2022-08-01T01:20:23;23.70;99.90
17170;DHT22;8700;48.222;16.342;2022-08-01T01:23:56;23.40;99.90
17170;DHT22;8700;48.222;16.342;2022-08-01T01:27:31;23.20;99.90
17170;DHT22;8700;48.222;16.342;2022-08-01T01:30:59;23.30;99.90
17170;DHT22;8700;48.222;16.342;2022-08-01T01:34:22;23.20;99.90
17170;DHT22;8700;48.222;16.342;2022-08-01T01:37:46;23.20;99.90
17170;DHT22;8700;48.222;16.342;2022-08-01T01:41:09;23.20;99.90
17170;DHT22;8700;48.222;16.342;2022-08-01T01:44:32;23.10;99.90
17170;DHT22;8700;48.222;16.342;2022-08-01T01:47:57;23.10;99.90
17170;DHT22;8700;48.222;16.342;2022-08-01T01:51:21;23.20;99.90
17170;DHT22;8700;48.222;16.342;2022-08-01T01:54:46;23.50;99.90
17170;DHT22;8700;48.222;16.342;2022-08-01T01:58:11;23.60;99.90
17170;DHT22;8700;48.222;16.342;2022-08-01T02:01:33;23.50;99.90
17170;DHT22;8700;48.222;16.342;2022-08-01T02:04:57;23.30;99.90
17170;DHT22;8700;48.222;16.342;2022-08-01T02:08:20;23.40;99.90
17170;DHT22;8700;48.222;16.342;2022-08-01T02:11:43;23.50;99.90
17170;DHT22;8700;48.222;16.342;2022-08-01T02:15:06;23.70;99.90
17170;DHT22;8700;48.222;16.342;2022-08-01T02:18:29;23.70;99.90
17170;DHT22;8700;48.222;16.342;2022-08-01T02:21:55;23.70;99.90
17170;DHT22;8700;48.222;16.342;2022-08-01T02:25:23;23.70;99.90
17170;DHT22;8700;48.222;16.342;2022-08-01T02:28:47;23.60;99.90
17170;DHT22;8700;48.222;16.342;2022-08-01T02:32:14;23.60;99.90
17170;DHT22;8700;48.222;16.342;2022-08-01T02:35:38;23.70;99.90
17170;DHT22;8700;48.222;16.342;2022-08-01T02:39:08;23.80;99.90
17170;DHT22;8700;48.222;16.342;2022-08-01T02:42:30;23.90;99.90
17170;DHT22;8700;48.222;16.342;2022-08-01T02:45:54;24.00;99.90
17170;DHT22;8700;48.222;16.342;2022-08-01T02:49:18;24.00;99.90
17170;DHT22;8700;48.222;16.342;2022-08-01T02:52:41;24.00;99.90
17170;DHT22;8700;48.222;16.342;2022-08-01T02:56:08;24.00;99.90
17170;DHT22;8700;48.222;16.342;2022-08-01T02:59:30;24.10;99.90
17170;DHT22;8700;48.222;16.342;2022-08-01T03:02:53;24.10;99.90
17170;DHT22;8700;48.222;16.342;2022-08-01T03:06:17;24.10;99.90
17170;DHT22;8700;48.222;16.342;2022-08-01T03:09:41;24.00;99.90
17170;DHT22;8700;48.222;16.342;2022-08-01T03:13:07;23.90;99.90
17170;DHT22;8700;48.222;16.342;2022-08-01T03:16:30;24.00;99.90
17170;DHT22;8700;48.222;16.342;2022-08-01T03:19:53;24.10;99.90
17170;DHT22;8700;48.222;16.342;2022-08-01T03:23:15;24.20;99.90
17170;DHT22;8700;48.222;16.342;2022-08-01T03:26:38;24.20;99.90
17170;DHT22;8700;48.222;16.342;2022-08-01T03:30:04;24.20;99.90
17170;DHT22;8700;48.222;16.342;2022-08-01T03:33:26;24.10;99.90
17170;DHT22;8700;48.222;16.342;2022-08-01T03:36:49;24.10;99.90
17170;DHT22;8700;48.222;16.342;2022-08-01T03:40:16;24.00;99.90
17170;DHT22;8700;48.222;16.342;2022-08-01T03:43:42;24.00;99.90
17170;DHT22;8700;48.222;16.342;2022-08-01T03:47:09;23.90;99.90
17170;DHT22;8700;48.222;16.342;2022-08-01T03:50:31;23.90;99.90
17170;DHT22;8700;48.222;16.342;2022-08-01T03:53:55;23.80;99.90
17170;DHT22;8700;48.222;16.342;2022-08-01T03:57:19;23.90;99.90
17170;DHT22;8700;48.222;16.342;2022-08-01T04:00:40;24.00;99.90
17170;DHT22;8700;48.222;16.342;2022-08-01T04:04:04;23.90;99.90
17170;DHT22;8700;48.222;16.342;2022-08-01T04:07:27;24.00;99.90
17170;DHT22;8700;48.222;16.342;2022-08-01T04:10:49;24.00;99.90
17170;DHT22;8700;48.222;16.342;2022-08-01T04:14:10;24.00;99.90
17170;DHT22;8700;48.222;16.342;2022-08-01T04:17:32;24.00;99.90
17170;DHT22;8700;48.222;16.342;2022-08-01T04:20:57;24.00;99.90
17170;DHT22;8700;48.222;16.342;2022-08-01T04:24:19;24.10;99.90
17170;DHT22;8700;48.222;16.342;2022-08-01T04:27:47;24.20;99.90
17170;DHT22;8700;48.222;16.342;2022-08-01T04:31:09;24.30;99.90
17170;DHT22;8700;48.222;16.342;2022-08-01T04:34:33;24.30;99.90
17170;DHT22;8700;48.222;16.342;2022-08-01T04:37:58;24.20;99.90
17170;DHT22;8700;48.222;16.342;2022-08-01T04:41:22;24.20;99.90
17170;DHT22;8700;48.222;16.342;2022-08-01T04:44:44;24.20;99.90
17170;DHT22;8700;48.222;16.342;2022-08-01T04:48:06;24.30;99.90
17170;DHT22;8700;48.222;16.342;2022-08-01T04:51:28;24.40;99.90
17170;DHT22;8700;48.222;16.342;2022-08-01T04:54:51;24.50;99.90
17170;DHT22;8700;48.222;16.342;2022-08-01T04:58:14;24.60;99.90
17170;DHT22;8700;48.222;16.342;2022-08-01T05:01:35;24.50;99.90
17170;DHT22;8700;48.222;16.342;2022-08-01T05:04:57;24.70;99.90
17170;DHT22;8700;48.222;16.342;2022-08-01T05:08:18;24.80;99.90
17170;DHT22;8700;48.222;16.342;2022-08-01T05:11:42;25.00;99.90
17170;DHT22;8700;48.222;16.342;2022-08-01T05:15:04;25.10;99.90
17170;DHT22;8700;48.222;16.342;2022-08-01T05:18:26;25.10;99.90
17170;DHT22;8700;48.222;16.342;2022-08-01T05:21:47;25.00;99.90
17170;DHT22;8700;48.222;16.342;2022-08-01T05:25:09;24.90;99.90
17170;DHT22;8700;48.222;16.342;2022-08-01T05:28:31;24.90;99.90
17170;DHT22;8700;48.222;16.342;2022-08-01T05:31:53;25.00;99.90
17170;DHT22;8700;48.222;16.342;2022-08-01T05:35:14;25.00;99.90
17170;DHT22;8700;48.222;16.342;2022-08-01T05:38:36;25.30;99.90
17170;DHT22;8700;48.222;16.342;2022-08-01T05:41:57;25.40;99.90
17170;DHT22;8700;48.222;16.342;2022-08-01T05:45:20;25.60;99.90
17170;DHT22;8700;48.222;16.342;2022-08-01T05:48:41;25.30;99.90
17170;DHT22;8700;48.222;16.342;2022-08-01T05:52:03;25.00;99.90
17170;DHT22;8700;48.222;16.342;2022-08-01T05:55:25;25.00;99.90
17170;DHT22;8700;48.222;16.342;2022-08-01T05:58:47;25.30;99.90
17170;DHT22;8700;48.222;16.342;2022-08-01T06:02:10;25.70;99.90
17170;DHT22;8700;48.222;16.342;2022-08-01T06:05:31;25.90;99.90
17170;DHT22;8700;48.222;16.342;2022-08-01T06:08:53;26.00;99.90
17170;DHT22;8700;48.222;16.342;2022-08-01T06:12:14;26.10;99.90
17170;DHT22;8700;48.222;16.342;2022-08-01T06:15:35;26.10;99.90
17170;DHT22;8700;48.222;16.342;2022-08-01T06:18:58;26.20;99.90
17170;DHT22;8700;48.222;16.342;2022-08-01T06:22:19;26.40;99.90
17170;DHT22;8700;48.222;16.342;2022-08-01T06:25:41;26.60;99.90
17170;DHT22;8700;48.222;16.342;2022-08-01T06:29:02;26.90;99.90
17170;DHT22;8700;48.222;16.342;2022-08-01T06:32:24;27.10;99.90
17170;DHT22;8700;48.222;16.342;2022-08-01T06:35:47;27.10;99.90
17170;DHT22;8700;48.222;16.342;2022-08-01T06:39:09;27.10;99.90
17170;DHT22;8700;48.222;16.342;2022-08-01T06:42:30;26.90;99.90
17170;DHT22;8700;48.222;16.342;2022-08-01T06:45:55;27.00;99.90
17170;DHT22;8700;48.222;16.342;2022-08-01T06:49:16;27.20;99.90
17170;DHT22;8700;48.222;16.342;2022-08-01T06:52:39;27.50;99.90
17170;DHT22;8700;48.222;16.342;2022-08-01T06:56:01;27.60;99.90
17170;DHT22;8700;48.222;16.342;2022-08-01T06:59:23;27.50;99.90
17170;DHT22;8700;48.222;16.342;2022-08-01T07:02:44;27.60;99.90
17170;DHT22;8700;48.222;16.342;2022-08-01T07:06:06;27.70;99.90
17170;DHT22;8700;48.222;16.342;2022-08-01T07:09:29;28.00;99.90
17170;DHT22;8700;48.222;16.342;2022-08-01T07:12:50;28.40;99.90
17170;DHT22;8700;48.222;16.342;2022-08-01T07:16:12;28.70;99.90
17170;DHT22;8700;48.222;16.342;2022-08-01T07:19:33;28.90;98.80
17170;DHT22;8700;48.222;16.342;2022-08-01T07:22:54;28.80;98.40
17170;DHT22;8700;48.222;16.342;2022-08-01T07:26:17;28.50;98.80
17170;DHT22;8700;48.222;16.342;2022-08-01T07:29:38;28.60;98.20
17170;DHT22;8700;48.222;16.342;2022-08-01T07:33:00;28.60;98.00
17170;DHT22;8700;48.222;16.342;2022-08-01T07:36:21;28.80;97.00
17170;DHT22;8700;48.222;16.342;2022-08-01T07:39:43;28.50;97.10
17170;DHT22;8700;48.222;16.342;2022-08-01T07:43:05;28.20;97.30
17170;DHT22;8700;48.222;16.342;2022-08-01T07:46:26;27.90;97.70
17170;DHT22;8700;48.222;16.342;2022-08-01T07:49:49;27.80;97.90
17170;DHT22;8700;48.222;16.342;2022-08-01T07:53:11;27.60;98.40
17170;DHT22;8700;48.222;16.342;2022-08-01T07:56:32;27.40;98.80
17170;DHT22;8700;48.222;16.342;2022-08-01T07:59:55;27.30;99.20
17170;DHT22;8700;48.222;16.342;2022-08-01T08:03:17;27.20;99.40
17170;DHT22;8700;48.222;16.342;2022-08-01T08:06:38;27.30;99.70
17170;DHT22;8700;48.222;16.342;2022-08-01T08:10:01;27.50;99.70
17170;DHT22;8700;48.222;16.342;2022-08-01T08:13:22;27.60;99.80
17170;DHT22;8700;48.222;16.342;2022-08-01T08:16:45;27.40;99.80
17170;DHT22;8700;48.222;16.342;2022-08-01T08:20:08;27.50;99.60
17170;DHT22;8700;48.222;16.342;2022-08-01T08:23:29;27.60;99.30
17170;DHT22;8700;48.222;16.342;2022-08-01T08:27:11;27.70;99.30
17170;DHT22;8700;48.222;16.342;2022-08-01T08:30:33;27.70;99.00
17170;DHT22;8700;48.222;16.342;2022-08-01T08:33:56;27.70;99.40
17170;DHT22;8700;48.222;16.342;2022-08-01T08:37:18;28.30;98.50
17170;DHT22;8700;48.222;16.342;2022-08-01T08:40:39;29.10;97.60
17170;DHT22;8700;48.222;16.342;2022-08-01T08:44:01;29.90;97.10
17170;DHT22;8700;48.222;16.342;2022-08-01T08:47:24;30.70;95.90
17170;DHT22;8700;48.222;16.342;2022-08-01T08:50:48;30.70;95.10
17170;DHT22;8700;48.222;16.342;2022-08-01T08:54:11;30.80;95.20
17170;DHT22;8700;48.222;16.342;2022-08-01T08:57:34;32.20;94.10
17170;DHT22;8700;48.222;16.342;2022-08-01T09:00:56;34.50;90.80
17170;DHT22;8700;48.222;16.342;2022-08-01T09:04:18;34.70;86.40
17170;DHT22;8700;48.222;16.342;2022-08-01T09:07:43;34.80;84.90
17170;DHT22;8700;48.222;16.342;2022-08-01T09:11:06;34.90;83.00
17170;DHT22;8700;48.222;16.342;2022-08-01T09:14:27;34.00;84.30
17170;DHT22;8700;48.222;16.342;2022-08-01T09:17:51;34.60;83.40
17170;DHT22;8700;48.222;16.342;2022-08-01T09:21:14;35.30;80.50
17170;DHT22;8700;48.222;16.342;2022-08-01T09:24:39;35.90;77.80
17170;DHT22;8700;48.222;16.342;2022-08-01T09:28:05;35.00;77.90
17170;DHT22;8700;48.222;16.342;2022-08-01T09:31:28;35.00;79.00
17170;DHT22;8700;48.222;16.342;2022-08-01T09:34:50;36.20;76.60
17170;DHT22;8700;48.222;16.342;2022-08-01T09:38:14;36.20;75.40
17170;DHT22;8700;48.222;16.342;2022-08-01T09:41:37;36.00;74.80
17170;DHT22;8700;48.222;16.342;2022-08-01T09:44:59;36.10;73.70
17170;DHT22;8700;48.222;16.342;2022-08-01T09:48:23;37.30;73.10
17170;DHT22;8700;48.222;16.342;2022-08-01T09:51:45;38.70;69.30
17170;DHT22;8700;48.222;16.342;2022-08-01T09:55:07;36.70;69.30
17170;DHT22;8700;48.222;16.342;2022-08-01T09:58:49;34.90;71.40
17170;DHT22;8700;48.222;16.342;2022-08-01T10:02:11;33.50;74.30
17170;DHT22;8700;48.222;16.342;2022-08-01T10:05:35;33.70;75.30
17170;DHT22;8700;48.222;16.342;2022-08-01T10:08:56;34.70;74.60
17170;DHT22;8700;48.222;16.342;2022-08-01T10:12:20;36.00;73.80
17170;DHT22;8700;48.222;16.342;2022-08-01T10:15:43;35.40;73.30
17170;DHT22;8700;48.222;16.342;2022-08-01T10:19:06;34.50;74.30
17170;DHT22;8700;48.222;16.342;2022-08-01T10:22:30;34.80;74.00
17170;DHT22;8700;48.222;16.342;2022-08-01T10:25:54;34.10;74.30
17170;DHT22;8700;48.222;16.342;2022-08-01T10:29:19;33.40;74.40
17170;DHT22;8700;48.222;16.342;2022-08-01T10:32:43;33.10;76.20
17170;DHT22;8700;48.222;16.342;2022-08-01T10:36:07;33.70;77.40
17170;DHT22;8700;48.222;16.342;2022-08-01T10:39:31;35.40;76.00
17170;DHT22;8700;48.222;16.342;2022-08-01T10:42:52;36.00;74.10
17170;DHT22;8700;48.222;16.342;2022-08-01T10:46:15;37.30;70.30
17170;DHT22;8700;48.222;16.342;2022-08-01T10:49:43;37.40;68.70
17170;DHT22;8700;48.222;16.342;2022-08-01T10:53:11;37.20;65.90
17170;DHT22;8700;48.222;16.342;2022-08-01T10:56:39;36.50;65.20
17170;DHT22;8700;48.222;16.342;2022-08-01T11:00:04;37.00;65.20
17170;DHT22;8700;48.222;16.342;2022-08-01T11:03:34;38.20;65.30
17170;DHT22;8700;48.222;16.342;2022-08-01T11:07:05;38.40;63.30
17170;DHT22;8700;48.222;16.342;2022-08-01T11:10:31;38.80;61.70
17170;DHT22;8700;48.222;16.342;2022-08-01T11:14:03;38.60;62.80
17170;DHT22;8700;48.222;16.342;2022-08-01T11:17:33;37.90;61.70
17170;DHT22;8700;48.222;16.342;2022-08-01T11:20:56;37.00;62.50
17170;DHT22;8700;48.222;16.342;2022-08-01T11:24:55;36.00;63.20
17170;DHT22;8700;48.222;16.342;2022-08-01T11:28:21;35.80;63.90
17170;DHT22;8700;48.222;16.342;2022-08-01T11:31:43;35.20;64.70
17170;DHT22;8700;48.222;16.342;2022-08-01T11:35:06;35.10;65.00
17170;DHT22;8700;48.222;16.342;2022-08-01T11:38:28;34.60;63.60
17170;DHT22;8700;48.222;16.342;2022-08-01T11:41:51;33.80;64.80
17170;DHT22;8700;48.222;16.342;2022-08-01T11:45:14;33.30;65.70
17170;DHT22;8700;48.222;16.342;2022-08-01T11:48:36;33.10;66.20
17170;DHT22;8700;48.222;16.342;2022-08-01T11:51:59;32.90;67.00
17170;DHT22;8700;48.222;16.342;2022-08-01T11:55:21;32.70;69.00
17170;DHT22;8700;48.222;16.342;2022-08-01T11:58:44;33.00;69.30
17170;DHT22;8700;48.222;16.342;2022-08-01T12:02:15;33.10;69.80
17170;DHT22;8700;48.222;16.342;2022-08-01T12:05:37;33.00;69.80
17170;DHT22;8700;48.222;16.342;2022-08-01T12:09:17;32.70;70.70
17170;DHT22;8700;48.222;16.342;2022-08-01T12:12:43;32.20;71.90
17170;DHT22;8700;48.222;16.342;2022-08-01T12:16:09;31.90;72.00
17170;DHT22;8700;48.222;16.342;2022-08-01T12:19:30;31.60;72.20
17170;DHT22;8700;48.222;16.342;2022-08-01T12:22:54;31.00;73.60
17170;DHT22;8700;48.222;16.342;2022-08-01T12:26:15;30.60;74.50
17170;DHT22;8700;48.222;16.342;2022-08-01T12:29:38;30.40;75.40
17170;DHT22;8700;48.222;16.342;2022-08-01T12:33:03;30.10;77.70
17170;DHT22;8700;48.222;16.342;2022-08-01T12:36:28;30.00;76.60
17170;DHT22;8700;48.222;16.342;2022-08-01T12:39:50;29.70;73.90
17170;DHT22;8700;48.222;16.342;2022-08-01T12:43:16;30.00;72.10
17170;DHT22;8700;48.222;16.342;2022-08-01T12:46:38;29.90;72.90
17170;DHT22;8700;48.222;16.342;2022-08-01T12:50:01;29.70;74.00
17170;DHT22;8700;48.222;16.342;2022-08-01T12:53:22;29.70;76.50
17170;DHT22;8700;48.222;16.342;2022-08-01T12:56:44;29.50;77.70
17170;DHT22;8700;48.222;16.342;2022-08-01T13:00:08;29.30;79.10
17170;DHT22;8700;48.222;16.342;2022-08-01T13:03:30;29.50;81.60
17170;DHT22;8700;48.222;16.342;2022-08-01T13:06:54;29.40;85.00
17170;DHT22;8700;48.222;16.342;2022-08-01T13:10:28;28.80;86.30
17170;DHT22;8700;48.222;16.342;2022-08-01T13:13:50;28.60;87.50
17170;DHT22;8700;48.222;16.342;2022-08-01T13:17:29;28.70;87.50
17170;DHT22;8700;48.222;16.342;2022-08-01T13:21:07;28.70;88.60
17170;DHT22;8700;48.222;16.342;2022-08-01T13:24:30;28.80;90.00
17170;DHT22;8700;48.222;16.342;2022-08-01T13:28:15;29.30;90.10
17170;DHT22;8700;48.222;16.342;2022-08-01T13:31:38;29.60;90.10
17170;DHT22;8700;48.222;16.342;2022-08-01T13:35:03;29.60;90.30
17170;DHT22;8700;48.222;16.342;2022-08-01T13:38:25;30.00;89.50
17170;DHT22;8700;48.222;16.342;2022-08-01T13:42:02;30.40;87.90
17170;DHT22;8700;48.222;16.342;2022-08-01T13:45:24;30.70;84.10
17170;DHT22;8700;48.222;16.342;2022-08-01T13:48:46;30.40;84.20
17170;DHT22;8700;48.222;16.342;2022-08-01T13:52:07;29.80;85.20
17170;DHT22;8700;48.222;16.342;2022-08-01T13:55:29;30.40;85.10
17170;DHT22;8700;48.222;16.342;2022-08-01T13:58:52;30.70;83.50
17170;DHT22;8700;48.222;16.342;2022-08-01T14:02:13;30.50;83.80
17170;DHT22;8700;48.222;16.342;2022-08-01T14:05:35;30.00;85.20
17170;DHT22;8700;48.222;16.342;2022-08-01T14:08:58;30.50;85.00
17170;DHT22;8700;48.222;16.342;2022-08-01T14:12:20;31.20;81.80
17170;DHT22;8700;48.222;16.342;2022-08-01T14:15:42;31.90;81.30
17170;DHT22;8700;48.222;16.342;2022-08-01T14:19:04;32.00;80.90
17170;DHT22;8700;48.222;16.342;2022-08-01T14:22:25;31.80;81.60
17170;DHT22;8700;48.222;16.342;2022-08-01T14:25:47;32.00;79.70
17170;DHT22;8700;48.222;16.342;2022-08-01T14:29:08;32.10;78.40
17170;DHT22;8700;48.222;16.342;2022-08-01T14:32:31;32.00;78.60
17170;DHT22;8700;48.222;16.342;2022-08-01T14:35:53;31.80;77.40
17170;DHT22;8700;48.222;16.342;2022-08-01T14:39:14;31.30;78.50
17170;DHT22;8700;48.222;16.342;2022-08-01T14:42:38;31.70;78.30
17170;DHT22;8700;48.222;16.342;2022-08-01T14:46:00;32.30;76.60
17170;DHT22;8700;48.222;16.342;2022-08-01T14:49:24;32.60;75.60
17170;DHT22;8700;48.222;16.342;2022-08-01T14:52:46;32.50;75.60
17170;DHT22;8700;48.222;16.342;2022-08-01T14:56:07;32.70;75.40
17170;DHT22;8700;48.222;16.342;2022-08-01T14:59:29;32.60;75.10
17170;DHT22;8700;48.222;16.342;2022-08-01T15:02:50;32.80;73.70
17170;DHT22;8700;48.222;16.342;2022-08-01T15:06:13;32.70;74.40
17170;DHT22;8700;48.222;16.342;2022-08-01T15:09:34;32.80;73.70
17170;DHT22;8700;48.222;16.342;2022-08-01T15:12:55;32.90;73.60
17170;DHT22;8700;48.222;16.342;2022-08-01T15:16:19;32.50;74.90
17170;DHT22;8700;48.222;16.342;2022-08-01T15:19:40;31.70;76.80
17170;DHT22;8700;48.222;16.342;2022-08-01T15:23:03;31.70;77.50
17170;DHT22;8700;48.222;16.342;2022-08-01T15:26:25;32.20;76.80
17170;DHT22;8700;48.222;16.342;2022-08-01T15:29:47;32.20;77.00
17170;DHT22;8700;48.222;16.342;2022-08-01T15:33:09;31.50;78.00
17170;DHT22;8700;48.222;16.342;2022-08-01T15:36:31;31.50;78.10
17170;DHT22;8700;48.222;16.342;2022-08-01T15:39:53;31.20;79.70
17170;DHT22;8700;48.222;16.342;2022-08-01T15:43:15;31.40;79.30
17170;DHT22;8700;48.222;16.342;2022-08-01T15:46:36;31.90;78.60
17170;DHT22;8700;48.222;16.342;2022-08-01T15:49:57;31.80;78.80
17170;DHT22;8700;48.222;16.342;2022-08-01T15:53:21;31.70;79.10
17170;DHT22;8700;48.222;16.342;2022-08-01T15:56:44;31.30;80.10
17170;DHT22;8700;48.222;16.342;2022-08-01T16:00:07;31.00;81.50
17170;DHT22;8700;48.222;16.342;2022-08-01T16:03:28;31.20;81.70
17170;DHT22;8700;48.222;16.342;2022-08-01T16:06:50;31.30;81.20
17170;DHT22;8700;48.222;16.342;2022-08-01T16:10:11;31.20;81.30
17170;DHT22;8700;48.222;16.342;2022-08-01T16:13:34;30.90;82.10
17170;DHT22;8700;48.222;16.342;2022-08-01T16:16:56;30.70;82.50
17170;DHT22;8700;48.222;16.342;2022-08-01T16:20:18;30.50;83.10
17170;DHT22;8700;48.222;16.342;2022-08-01T16:23:40;30.20;83.90
17170;DHT22;8700;48.222;16.342;2022-08-01T16:27:02;29.90;85.00
17170;DHT22;8700;48.222;16.342;2022-08-01T16:30:25;29.70;86.00
17170;DHT22;8700;48.222;16.342;2022-08-01T16:33:47;29.70;86.80
17170;DHT22;8700;48.222;16.342;2022-08-01T16:37:09;29.70;87.50
17170;DHT22;8700;48.222;16.342;2022-08-01T16:40:31;29.60;88.20
17170;DHT22;8700;48.222;16.342;2022-08-01T16:43:53;29.50;88.20
17170;DHT22;8700;48.222;16.342;2022-08-01T16:47:17;29.60;88.00
17170;DHT22;8700;48.222;16.342;2022-08-01T16:50:38;29.70;88.40
17170;DHT22;8700;48.222;16.342;2022-08-01T16:54:16;29.60;88.90
17170;DHT22;8700;48.222;16.342;2022-08-01T16:57:45;29.60;88.80
17170;DHT22;8700;48.222;16.342;2022-08-01T17:01:07;29.50;87.90
17170;DHT22;8700;48.222;16.342;2022-08-01T17:04:30;29.20;88.40
17170;DHT22;8700;48.222;16.342;2022-08-01T17:07:53;29.20;88.50
17170;DHT22;8700;48.222;16.342;2022-08-01T17:11:14;29.30;88.30
17170;DHT22;8700;48.222;16.342;2022-08-01T17:14:36;29.20;88.70
17170;DHT22;8700;48.222;16.342;2022-08-01T17:17:58;29.20;88.70
17170;DHT22;8700;48.222;16.342;2022-08-01T17:21:23;29.10;89.30
17170;DHT22;8700;48.222;16.342;2022-08-01T17:24:44;29.10;89.50
17170;DHT22;8700;48.222;16.342;2022-08-01T17:28:06;29.00;89.60
17170;DHT22;8700;48.222;16.342;2022-08-01T17:31:29;28.70;89.80
17170;DHT22;8700;48.222;16.342;2022-08-01T17:34:51;28.50;90.10
17170;DHT22;8700;48.222;16.342;2022-08-01T17:38:13;28.50;90.10
17170;DHT22;8700;48.222;16.342;2022-08-01T17:41:35;28.60;90.00
17170;DHT22;8700;48.222;16.342;2022-08-01T17:44:57;28.50;90.10
17170;DHT22;8700;48.222;16.342;2022-08-01T17:48:19;28.40;90.20
17170;DHT22;8700;48.222;16.342;2022-08-01T17:51:40;28.40;90.50
17170;DHT22;8700;48.222;16.342;2022-08-01T17:55:06;28.20;90.90
17170;DHT22;8700;48.222;16.342;2022-08-01T17:58:28;28.10;91.20
17170;DHT22;8700;48.222;16.342;2022-08-01T18:01:50;28.10;91.30
17170;DHT22;8700;48.222;16.342;2022-08-01T18:05:11;27.90;91.60
17170;DHT22;8700;48.222;16.342;2022-08-01T18:08:34;27.90;92.00
17170;DHT22;8700;48.222;16.342;2022-08-01T18:11:57;27.70;92.30
17170;DHT22;8700;48.222;16.342;2022-08-01T18:15:19;27.80;92.40
17170;DHT22;8700;48.222;16.342;2022-08-01T18:18:42;27.70;92.60
17170;DHT22;8700;48.222;16.342;2022-08-01T18:22:08;27.70;92.80
17170;DHT22;8700;48.222;16.342;2022-08-01T18:25:31;27.60;93.30
17170;DHT22;8700;48.222;16.342;2022-08-01T18:28:54;27.40;93.80
17170;DHT22;8700;48.222;16.342;2022-08-01T18:32:17;27.30;94.20
17170;DHT22;8700;48.222;16.342;2022-08-01T18:35:38;27.00;94.90
17170;DHT22;8700;48.222;16.342;2022-08-01T18:39:02;27.00;95.30
17170;DHT22;8700;48.222;16.342;2022-08-01T18:42:25;27.00;95.50
17170;DHT22;8700;48.222;16.342;2022-08-01T18:45:48;27.10;95.40
17170;DHT22;8700;48.222;16.342;2022-08-01T18:49:11;27.00;95.70
17170;DHT22;8700;48.222;16.342;2022-08-01T18:52:35;26.90;96.30
17170;DHT22;8700;48.222;16.342;2022-08-01T18:55:56;26.80;96.60
17170;DHT22;8700;48.222;16.342;2022-08-01T18:59:19;26.80;96.90
17170;DHT22;8700;48.222;16.342;2022-08-01T19:02:43;26.70;97.40
17170;DHT22;8700;48.222;16.342;2022-08-01T19:06:05;26.70;97.80
17170;DHT22;8700;48.222;16.342;2022-08-01T19:09:26;26.60;98.30
17170;DHT22;8700;48.222;16.342;2022-08-01T19:12:47;26.60;98.60
17170;DHT22;8700;48.222;16.342;2022-08-01T19:16:09;26.60;99.00
17170;DHT22;8700;48.222;16.342;2022-08-01T19:19:31;26.50;99.40
17170;DHT22;8700;48.222;16.342;2022-08-01T19:22:55;26.50;99.70
17170;DHT22;8700;48.222;16.342;2022-08-01T19:26:18;26.60;99.80
17170;DHT22;8700;48.222;16.342;2022-08-01T19:29:40;26.50;99.90
17170;DHT22;8700;48.222;16.342;2022-08-01T19:33:02;26.50;99.90
17170;DHT22;8700;48.222;16.342;2022-08-01T19:36:25;26.40;99.90
17170;DHT22;8700;48.222;16.342;2022-08-01T19:39:47;26.20;99.90
17170;DHT22;8700;48.222;16.342;2022-08-01T19:43:09;25.90;99.90
17170;DHT22;8700;48.222;16.342;2022-08-01T19:46:32;25.80;99.90
17170;DHT22;8700;48.222;16.342;2022-08-01T19:49:53;25.70;99.90
17170;DHT22;8700;48.222;16.342;2022-08-01T19:53:17;25.70;99.90
17170;DHT22;8700;48.222;16.342;2022-08-01T19:56:44;25.80;99.90
17170;DHT22;8700;48.222;16.342;2022-08-01T20:00:07;26.10;99.90
17170;DHT22;8700;48.222;16.342;2022-08-01T20:03:29;26.40;99.90
17170;DHT22;8700;48.222;16.342;2022-08-01T20:06:52;26.40;99.90
17170;DHT22;8700;48.222;16.342;2022-08-01T20:10:16;26.30;99.90
17170;DHT22;8700;48.222;16.342;2022-08-01T20:13:40;26.30;99.90
17170;DHT22;8700;48.222;16.342;2022-08-01T20:17:01;26.30;99.90
17170;DHT22;8700;48.222;16.342;2022-08-01T20:20:23;26.20;99.90
17170;DHT22;8700;48.222;16.342;2022-08-01T20:23:45;26.10;99.90
17170;DHT22;8700;48.222;16.342;2022-08-01T20:27:08;26.10;99.90
17170;DHT22;8700;48.222;16.342;2022-08-01T20:30:31;26.20;99.90
17170;DHT22;8700;48.222;16.342;2022-08-01T20:33:52;26.20;99.90
17170;DHT22;8700;48.222;16.342;2022-08-01T20:37:16;26.10;99.90
17170;DHT22;8700;48.222;16.342;2022-08-01T20:40:42;26.00;99.90
17170;DHT22;8700;48.222;16.342;2022-08-01T20:44:07;25.70;99.90
17170;DHT22;8700;48.222;16.342;2022-08-01T20:47:30;25.70;99.90
17170;DHT22;8700;48.222;16.342;2022-08-01T20:50:53;25.90;99.90
17170;DHT22;8700;48.222;16.342;2022-08-01T20:54:32;25.90;99.90
17170;DHT22;8700;48.222;16.342;2022-08-01T20:57:54;25.70;99.90
17170;DHT22;8700;48.222;16.342;2022-08-01T21:01:23;25.70;99.90
17170;DHT22;8700;48.222;16.342;2022-08-01T21:04:51;25.60;99.90
17170;DHT22;8700;48.222;16.342;2022-08-01T21:08:19;25.60;99.90
17170;DHT22;8700;48.222;16.342;2022-08-01T21:11:47;25.60;99.90
17170;DHT22;8700;48.222;16.342;2022-08-01T21:15:12;25.60;99.90
17170;DHT22;8700;48.222;16.342;2022-08-01T21:18:39;25.70;99.90
17170;DHT22;8700;48.222;16.342;2022-08-01T21:22:05;25.70;99.90
17170;DHT22;8700;48.222;16.342;2022-08-01T21:25:33;25.60;99.90